DLH411 KJFK-EDDM
Flight info
| Callsign | DLH411 |
|---|---|
| Flight time | N/A |
| Altitude | 39000 |
| Route | DCT BETTE DCT ACK DCT BRADD N427A ELSIR/M085F380 NATV GISTI/N0487F390 DCT SLANY DCT OKSAW DCT KONAN UL607 FERDI DCT REMBA UL607 SPI DCT MOVUM T109 HAREM/N0463F350 T104 ELMOX/N0412F270 T104 ROKIL ROKIL1B |
| Aircraft | A388/J-SADE2E3FGHIJ3J4J5M1RWXY/LB1D1 |
Departure
| Time | N/A |
|---|---|
| Airport | John F. Kennedy International Airport (KJFK) |
Arrival
| Time | 2026-05-06 05:50 |
|---|---|
| Airport | Munich Airport (EDDM) |
| Time | Latitude | Longitude | Altitude | Speed | Heading |
|---|---|---|---|---|---|
| 2026-05-06 05:01 | 50.56776 | 5.37140 | 38806 ft | 496 kts | 110° |
| 2026-05-06 05:01 | 50.54614 | 5.47459 | 38802 ft | 496 kts | 110° |
| 2026-05-06 05:02 | 50.52442 | 5.57777 | 38789 ft | 496 kts | 110° |
| 2026-05-06 05:02 | 50.50346 | 5.68044 | 38793 ft | 496 kts | 108° |
| 2026-05-06 05:03 | 50.48504 | 5.78508 | 38784 ft | 497 kts | 107° |
| 2026-05-06 05:03 | 50.46644 | 5.88970 | 38782 ft | 497 kts | 108° |
| 2026-05-06 05:04 | 50.44743 | 5.99397 | 38769 ft | 497 kts | 108° |
| 2026-05-06 05:04 | 50.42836 | 6.09747 | 38762 ft | 497 kts | 108° |
| 2026-05-06 05:05 | 50.40904 | 6.20181 | 38755 ft | 498 kts | 108° |
| 2026-05-06 05:05 | 50.38965 | 6.30596 | 38746 ft | 498 kts | 108° |
| 2026-05-06 05:06 | 50.37024 | 6.40963 | 38748 ft | 498 kts | 108° |
| 2026-05-06 05:06 | 50.35063 | 6.51372 | 38735 ft | 498 kts | 108° |
| 2026-05-06 05:07 | 50.33092 | 6.61784 | 38736 ft | 499 kts | 108° |
| 2026-05-06 05:07 | 50.31443 | 6.70449 | 38745 ft | 499 kts | 108° |
| 2026-05-06 05:08 | 50.29455 | 6.80840 | 38750 ft | 499 kts | 108° |
| 2026-05-06 05:08 | 50.27452 | 6.91252 | 38734 ft | 499 kts | 108° |
| 2026-05-06 05:09 | 50.25443 | 7.01644 | 38743 ft | 499 kts | 109° |
| 2026-05-06 05:09 | 50.23420 | 7.12049 | 38741 ft | 500 kts | 109° |
| 2026-05-06 05:10 | 50.21398 | 7.22389 | 38745 ft | 500 kts | 109° |
| 2026-05-06 05:10 | 50.19357 | 7.32773 | 38750 ft | 500 kts | 109° |
| 2026-05-06 05:11 | 50.17309 | 7.43138 | 38758 ft | 499 kts | 109° |
| 2026-05-06 05:11 | 50.15255 | 7.53476 | 38757 ft | 499 kts | 109° |
| 2026-05-06 05:12 | 50.13319 | 7.63848 | 38751 ft | 497 kts | 107° |
| 2026-05-06 05:12 | 50.11269 | 7.74128 | 38741 ft | 496 kts | 111° |
| 2026-05-06 05:13 | 50.09092 | 7.84312 | 38753 ft | 497 kts | 110° |
| 2026-05-06 05:13 | 50.06987 | 7.94542 | 38773 ft | 498 kts | 110° |
| 2026-05-06 05:14 | 50.04887 | 8.04831 | 38790 ft | 498 kts | 110° |
| 2026-05-06 05:14 | 50.02784 | 8.15096 | 38800 ft | 499 kts | 110° |
| 2026-05-06 05:15 | 50.00687 | 8.25277 | 38805 ft | 498 kts | 110° |
| 2026-05-06 05:15 | 49.98554 | 8.35575 | 38819 ft | 498 kts | 110° |
| 2026-05-06 05:16 | 49.96435 | 8.45747 | 38784 ft | 498 kts | 111° |
| 2026-05-06 05:16 | 49.93803 | 8.55682 | 38786 ft | 495 kts | 119° |
| 2026-05-06 05:17 | 49.90447 | 8.64983 | 38774 ft | 493 kts | 122° |
| 2026-05-06 05:17 | 49.87041 | 8.74209 | 38778 ft | 493 kts | 122° |
| 2026-05-06 05:18 | 49.83643 | 8.83384 | 38771 ft | 492 kts | 122° |
| 2026-05-06 05:18 | 49.80215 | 8.92585 | 38769 ft | 492 kts | 122° |
| 2026-05-06 05:19 | 49.76781 | 9.01777 | 38771 ft | 493 kts | 122° |
| 2026-05-06 05:19 | 49.73391 | 9.10829 | 38775 ft | 492 kts | 123° |
| 2026-05-06 05:20 | 49.69936 | 9.20017 | 38779 ft | 493 kts | 123° |
| 2026-05-06 05:20 | 49.66485 | 9.29165 | 38777 ft | 493 kts | 123° |
| 2026-05-06 05:21 | 49.62996 | 9.38287 | 38777 ft | 492 kts | 125° |
| 2026-05-06 05:21 | 49.58898 | 9.46687 | 38786 ft | 488 kts | 134° |
| 2026-05-06 05:22 | 49.54417 | 9.54475 | 38790 ft | 489 kts | 134° |
| 2026-05-06 05:22 | 49.49925 | 9.62330 | 38796 ft | 489 kts | 134° |
| 2026-05-06 05:23 | 49.45416 | 9.70201 | 38800 ft | 489 kts | 134° |
| 2026-05-06 05:23 | 49.38646 | 9.81972 | 38805 ft | 489 kts | 134° |
| 2026-05-06 05:24 | 49.34154 | 9.89741 | 38808 ft | 489 kts | 135° |
| 2026-05-06 05:24 | 49.29612 | 9.97562 | 38812 ft | 489 kts | 135° |
| 2026-05-06 05:25 | 49.25111 | 10.05292 | 38812 ft | 489 kts | 135° |
| 2026-05-06 05:25 | 49.20576 | 10.13060 | 38822 ft | 489 kts | 135° |
| 2026-05-06 05:26 | 49.16063 | 10.20775 | 38588 ft | 482 kts | 135° |
| 2026-05-06 05:26 | 49.13833 | 10.24584 | 38300 ft | 479 kts | 136° |
| 2026-05-06 05:26 | 49.11571 | 10.28316 | 38061 ft | 478 kts | 138° |
| 2026-05-06 05:27 | 49.06951 | 10.35672 | 37950 ft | 482 kts | 138° |
| 2026-05-06 05:27 | 49.04664 | 10.39316 | 37662 ft | 480 kts | 138° |
| 2026-05-06 05:27 | 49.02357 | 10.43003 | 37006 ft | 480 kts | 138° |
| 2026-05-06 05:28 | 49.00046 | 10.46699 | 36145 ft | 483 kts | 139° |
| 2026-05-06 05:28 | 48.97721 | 10.50406 | 35200 ft | 486 kts | 139° |
| 2026-05-06 05:28 | 48.95377 | 10.54137 | 34230 ft | 489 kts | 139° |
| 2026-05-06 05:28 | 48.93016 | 10.57891 | 33109 ft | 492 kts | 139° |
| 2026-05-06 05:29 | 48.90651 | 10.61653 | 32156 ft | 491 kts | 139° |
| 2026-05-06 05:29 | 48.88308 | 10.65381 | 31556 ft | 483 kts | 140° |
| 2026-05-06 05:29 | 48.86021 | 10.69020 | 31219 ft | 470 kts | 140° |
| 2026-05-06 05:29 | 48.83772 | 10.72587 | 30636 ft | 464 kts | 140° |
| 2026-05-06 05:30 | 48.81546 | 10.76106 | 30035 ft | 459 kts | 140° |
| 2026-05-06 05:30 | 48.79367 | 10.79539 | 29378 ft | 454 kts | 140° |
| 2026-05-06 05:30 | 48.77188 | 10.82959 | 28794 ft | 449 kts | 140° |
| 2026-05-06 05:30 | 48.75028 | 10.86344 | 28219 ft | 442 kts | 140° |
| 2026-05-06 05:31 | 48.72897 | 10.89679 | 27639 ft | 438 kts | 140° |
| 2026-05-06 05:31 | 48.70791 | 10.92970 | 27099 ft | 432 kts | 140° |
| 2026-05-06 05:31 | 48.68708 | 10.96223 | 26524 ft | 426 kts | 141° |
| 2026-05-06 05:31 | 48.66652 | 10.99427 | 25967 ft | 422 kts | 141° |
| 2026-05-06 05:32 | 48.64614 | 11.02593 | 25411 ft | 418 kts | 141° |
| 2026-05-06 05:32 | 48.62587 | 11.05739 | 24851 ft | 414 kts | 141° |
| 2026-05-06 05:32 | 48.60603 | 11.08816 | 24308 ft | 411 kts | 140° |
| 2026-05-06 05:32 | 48.58592 | 11.11871 | 23761 ft | 405 kts | 143° |
| 2026-05-06 05:33 | 48.56430 | 11.14529 | 23169 ft | 397 kts | 151° |
| 2026-05-06 05:33 | 48.54154 | 11.16818 | 22640 ft | 391 kts | 152° |
| 2026-05-06 05:33 | 48.51935 | 11.19065 | 22109 ft | 386 kts | 150° |
| 2026-05-06 05:33 | 48.49841 | 11.21620 | 21563 ft | 387 kts | 143° |
| 2026-05-06 05:34 | 48.47863 | 11.24335 | 21043 ft | 383 kts | 143° |
| 2026-05-06 05:34 | 48.45892 | 11.27015 | 20496 ft | 380 kts | 143° |
| 2026-05-06 05:34 | 48.43961 | 11.29719 | 19969 ft | 379 kts | 136° |
| 2026-05-06 05:34 | 48.42467 | 11.33065 | 19234 ft | 391 kts | 118° |
| 2026-05-06 05:35 | 48.41705 | 11.37012 | 18683 ft | 397 kts | 100° |
| 2026-05-06 05:35 | 48.41735 | 11.41179 | 18181 ft | 398 kts | 86° |
| 2026-05-06 05:35 | 48.42122 | 11.45246 | 17607 ft | 395 kts | 83° |
| 2026-05-06 05:35 | 48.42551 | 11.49326 | 17029 ft | 392 kts | 84° |
| 2026-05-06 05:36 | 48.42942 | 11.53370 | 16462 ft | 388 kts | 84° |
| 2026-05-06 05:36 | 48.43294 | 11.57382 | 15899 ft | 385 kts | 85° |
| 2026-05-06 05:36 | 48.43620 | 11.61368 | 15355 ft | 382 kts | 85° |
| 2026-05-06 05:36 | 48.43931 | 11.65303 | 14816 ft | 379 kts | 85° |
| 2026-05-06 05:37 | 48.44238 | 11.69265 | 14270 ft | 376 kts | 85° |
| 2026-05-06 05:37 | 48.44538 | 11.73161 | 13737 ft | 373 kts | 86° |
| 2026-05-06 05:37 | 48.44832 | 11.76988 | 13195 ft | 370 kts | 86° |
| 2026-05-06 05:37 | 48.45127 | 11.80846 | 12666 ft | 365 kts | 85° |
| 2026-05-06 05:38 | 48.45417 | 11.84641 | 12126 ft | 361 kts | 85° |
| 2026-05-06 05:38 | 48.45702 | 11.88390 | 11609 ft | 358 kts | 85° |
| 2026-05-06 05:38 | 48.45978 | 11.92037 | 11106 ft | 354 kts | 85° |
| 2026-05-06 05:38 | 48.46255 | 11.95711 | 10562 ft | 352 kts | 85° |
| 2026-05-06 05:39 | 48.46529 | 11.99354 | 10265 ft | 342 kts | 85° |
| 2026-05-06 05:39 | 48.46792 | 12.02854 | 10127 ft | 329 kts | 85° |
| 2026-05-06 05:39 | 48.47043 | 12.06209 | 10005 ft | 316 kts | 86° |
| 2026-05-06 05:39 | 48.47282 | 12.09433 | 9805 ft | 305 kts | 86° |
| 2026-05-06 05:40 | 48.47511 | 12.12542 | 9488 ft | 300 kts | 86° |
| 2026-05-06 05:40 | 48.47740 | 12.15662 | 9103 ft | 298 kts | 86° |
| 2026-05-06 05:40 | 48.47965 | 12.18751 | 8724 ft | 295 kts | 85° |
| 2026-05-06 05:40 | 48.48188 | 12.21810 | 8351 ft | 293 kts | 85° |
| 2026-05-06 05:41 | 48.48410 | 12.24859 | 7798 ft | 291 kts | 85° |
| 2026-05-06 05:41 | 48.48628 | 12.27869 | 7284 ft | 287 kts | 85° |
| 2026-05-06 05:41 | 48.48787 | 12.30848 | 6755 ft | 282 kts | 97° |
| 2026-05-06 05:41 | 48.48244 | 12.33618 | 6369 ft | 275 kts | 123° |
| 2026-05-06 05:42 | 48.46967 | 12.35640 | 5984 ft | 269 kts | 150° |
| 2026-05-06 05:42 | 48.45240 | 12.36560 | 5554 ft | 267 kts | 176° |
| 2026-05-06 05:42 | 48.43425 | 12.36184 | 5128 ft | 265 kts | 204° |
| 2026-05-06 05:42 | 48.41982 | 12.34542 | 4896 ft | 262 kts | 233° |
| 2026-05-06 05:43 | 48.41206 | 12.32060 | 4830 ft | 264 kts | 254° |
| 2026-05-06 05:43 | 48.40813 | 12.29346 | 4833 ft | 266 kts | 260° |
| 2026-05-06 05:43 | 48.40417 | 12.26645 | 4836 ft | 265 kts | 254° |
| 2026-05-06 05:43 | 48.39981 | 12.23936 | 4833 ft | 265 kts | 259° |
| 2026-05-06 05:44 | 48.39690 | 12.21197 | 4831 ft | 265 kts | 262° |
| 2026-05-06 05:44 | 48.39467 | 12.18441 | 4839 ft | 264 kts | 263° |
| 2026-05-06 05:44 | 48.39257 | 12.15745 | 4836 ft | 252 kts | 263° |
| 2026-05-06 05:44 | 48.39063 | 12.13193 | 4850 ft | 238 kts | 263° |
| 2026-05-06 05:45 | 48.38879 | 12.10785 | 4841 ft | 226 kts | 263° |
| 2026-05-06 05:45 | 48.38708 | 12.08542 | 4851 ft | 211 kts | 263° |
| 2026-05-06 05:45 | 48.38545 | 12.06418 | 4838 ft | 197 kts | 263° |
| 2026-05-06 05:45 | 48.38396 | 12.04456 | 4600 ft | 180 kts | 264° |
| 2026-05-06 05:46 | 48.38267 | 12.02626 | 4214 ft | 171 kts | 263° |
| 2026-05-06 05:46 | 48.38119 | 12.00886 | 3973 ft | 163 kts | 263° |
| 2026-05-06 05:46 | 48.38004 | 11.99249 | 3749 ft | 152 kts | 265° |
| 2026-05-06 05:46 | 48.37890 | 11.97714 | 3561 ft | 145 kts | 264° |
| 2026-05-06 05:47 | 48.37771 | 11.96217 | 3361 ft | 143 kts | 264° |
| 2026-05-06 05:47 | 48.37654 | 11.94761 | 3177 ft | 141 kts | 264° |
| 2026-05-06 05:47 | 48.37525 | 11.93298 | 2986 ft | 141 kts | 263° |
| 2026-05-06 05:47 | 48.37435 | 11.91831 | 2806 ft | 141 kts | 264° |
| 2026-05-06 05:48 | 48.37326 | 11.90367 | 2608 ft | 141 kts | 265° |
| 2026-05-06 05:48 | 48.37211 | 11.88892 | 2411 ft | 142 kts | 263° |
| 2026-05-06 05:48 | 48.37089 | 11.87416 | 2210 ft | 142 kts | 264° |
| 2026-05-06 05:48 | 48.36981 | 11.85935 | 2006 ft | 143 kts | 263° |
| 2026-05-06 05:49 | 48.36867 | 11.84473 | 1807 ft | 142 kts | 264° |
| 2026-05-06 05:49 | 48.36758 | 11.82996 | 1617 ft | 141 kts | 264° |
| 2026-05-06 05:49 | 48.36650 | 11.81546 | 1481 ft | 132 kts | 263° |
| 2026-05-06 05:49 | 48.36575 | 11.80501 | 1482 ft | 65 kts | 264° |
| 2026-05-06 05:50 | 48.36549 | 11.80143 | 1485 ft | 15 kts | 258° |
| 2026-05-06 05:50 | 48.36526 | 11.79978 | 1480 ft | 17 kts | 258° |
| 2026-05-06 05:50 | 48.36500 | 11.79792 | 1481 ft | 19 kts | 258° |
| 2026-05-06 05:50 | 48.36489 | 11.79734 | 1475 ft | 9 kts | 231° |
| 2026-05-06 05:51 | 48.36437 | 11.79667 | 1475 ft | 12 kts | 236° |
| 2026-05-06 05:51 | 48.36385 | 11.79550 | 1478 ft | 15 kts | 234° |
| 2026-05-06 05:51 | 48.36338 | 11.79464 | 1475 ft | 17 kts | 230° |
| 2026-05-06 05:51 | 48.36222 | 11.79309 | 1480 ft | 17 kts | 190° |
| 2026-05-06 05:52 | 48.36104 | 11.79315 | 1486 ft | 18 kts | 171° |
| 2026-05-06 05:52 | 48.36068 | 11.79323 | 1479 ft | 0 kts | 171° |
| 2026-05-06 05:52 | 48.35896 | 11.79362 | 1477 ft | 2 kts | 171° |
| 2026-05-06 05:53 | 48.35861 | 11.79369 | 1483 ft | 8 kts | 172° |
| 2026-05-06 05:53 | 48.35787 | 11.79386 | 1477 ft | 13 kts | 172° |
| 2026-05-06 05:53 | 48.35684 | 11.79408 | 1478 ft | 17 kts | 172° |
| 2026-05-06 05:53 | 48.35558 | 11.79435 | 1476 ft | 20 kts | 172° |
| 2026-05-06 05:54 | 48.35482 | 11.79508 | 1475 ft | 11 kts | 90° |
| 2026-05-06 05:54 | 48.35458 | 11.79581 | 1480 ft | 8 kts | 159° |
| 2026-05-06 05:54 | 48.35389 | 11.79609 | 1482 ft | 13 kts | 170° |
| 2026-05-06 05:54 | 48.35350 | 11.79673 | 1482 ft | 9 kts | 71° |
| 2026-05-06 05:55 | 48.35365 | 11.79751 | 1487 ft | 0 kts | 79° |